sensor_id;sensor_type;location;lat;lon;timestamp;pressure;altitude;pressure_sealevel;temperature;humidity
76605;BME280;73179;50.978;16.998;2024-03-23T00:52:05;99423.75;;;8.99;99.04
76605;BME280;73179;50.978;16.998;2024-03-23T00:54:31;99380.19;;;8.87;97.75
76605;BME280;73179;50.978;16.998;2024-03-23T00:56:57;99374.47;;;8.88;96.71
76605;BME280;73179;50.978;16.998;2024-03-23T00:59:23;99405.31;;;9.20;95.61
76605;BME280;73179;50.978;16.998;2024-03-23T01:01:53;99387.41;;;9.10;95.09
76605;BME280;73179;50.978;16.998;2024-03-23T01:04:19;99402.56;;;9.25;94.71
76605;BME280;73179;50.978;16.998;2024-03-23T01:06:45;99342.41;;;8.87;95.03
76605;BME280;73179;50.978;16.998;2024-03-23T01:09:12;99338.22;;;8.94;94.23
76605;BME280;73179;50.978;16.998;2024-03-23T01:11:39;99383.56;;;9.30;94.18
76605;BME280;73179;50.978;16.998;2024-03-23T01:14:06;99362.44;;;9.18;94.66
76605;BME280;73179;50.978;16.998;2024-03-23T01:16:32;99326.84;;;8.97;94.61
76605;BME280;73179;50.978;16.998;2024-03-23T01:18:58;99341.28;;;9.06;94.11
76605;BME280;73179;50.978;16.998;2024-03-23T01:21:24;99357.72;;;9.24;93.56
76605;BME280;73179;50.978;16.998;2024-03-23T01:23:50;99335.88;;;9.06;94.17
76605;BME280;73179;50.978;16.998;2024-03-23T01:26:16;99306.72;;;8.90;94.69
76605;BME280;73179;50.978;16.998;2024-03-23T01:28:42;99347.31;;;9.17;95.04
76605;BME280;73179;50.978;16.998;2024-03-23T01:31:08;99339.59;;;9.11;95.35
76605;BME280;73179;50.978;16.998;2024-03-23T01:33:34;99351.69;;;9.13;96.12
76605;BME280;73179;50.978;16.998;2024-03-23T01:36:01;99294.88;;;8.72;97.03
76605;BME280;73179;50.978;16.998;2024-03-23T01:38:27;99332.78;;;8.99;97.97
76605;BME280;73179;50.978;16.998;2024-03-23T01:40:58;99289.31;;;8.64;98.93
76605;BME280;73179;50.978;16.998;2024-03-23T01:43:24;99302.44;;;8.70;98.97
76605;BME280;73179;50.978;16.998;2024-03-23T01:45:51;99326.00;;;8.83;98.57
76605;BME280;73179;50.978;16.998;2024-03-23T01:48:20;99302.38;;;8.75;98.11
76605;BME280;73179;50.978;16.998;2024-03-23T01:50:47;99260.38;;;8.50;98.41
76605;BME280;73179;50.978;16.998;2024-03-23T01:53:14;99302.78;;;8.82;98.75
76605;BME280;73179;50.978;16.998;2024-03-23T01:55:43;99292.22;;;8.67;99.34
76605;BME280;73179;50.978;16.998;2024-03-23T01:58:09;99296.16;;;8.75;99.23
76605;BME280;73179;50.978;16.998;2024-03-23T02:00:36;99300.25;;;8.72;99.50
76605;BME280;73179;50.978;16.998;2024-03-23T02:03:02;99266.28;;;8.52;99.90
76605;BME280;73179;50.978;16.998;2024-03-23T02:05:47;99289.53;;;8.67;100.00
76605;BME280;73179;50.978;16.998;2024-03-23T02:08:13;99291.44;;;8.67;100.00
76605;BME280;73179;50.978;16.998;2024-03-23T02:10:40;99244.41;;;8.35;100.00
76605;BME280;73179;50.978;16.998;2024-03-23T02:13:06;99252.44;;;8.40;100.00
76605;BME280;73179;50.978;16.998;2024-03-23T02:15:32;99299.81;;;8.65;100.00
76605;BME280;73179;50.978;16.998;2024-03-23T02:17:59;99271.31;;;8.59;99.01
76605;BME280;73179;50.978;16.998;2024-03-23T02:20:25;99265.53;;;8.66;98.25
76605;BME280;73179;50.978;16.998;2024-03-23T02:22:53;99255.47;;;8.71;98.28
76605;BME280;73179;50.978;16.998;2024-03-23T02:25:19;99195.59;;;8.37;98.22
76605;BME280;73179;50.978;16.998;2024-03-23T02:27:45;99259.13;;;8.80;98.73
76605;BME280;73179;50.978;16.998;2024-03-23T02:30:11;99226.25;;;8.59;98.19
76605;BME280;73179;50.978;16.998;2024-03-23T02:32:37;99220.13;;;8.54;98.55
76605;BME280;73179;50.978;16.998;2024-03-23T02:35:03;99251.53;;;8.82;98.06
76605;BME280;73179;50.978;16.998;2024-03-23T02:37:30;99210.56;;;8.61;97.83
76605;BME280;73179;50.978;16.998;2024-03-23T02:39:56;99236.34;;;8.86;96.68
76605;BME280;73179;50.978;16.998;2024-03-23T02:42:22;99195.28;;;8.57;97.73
76605;BME280;73179;50.978;16.998;2024-03-23T02:44:49;99223.09;;;8.71;98.22
76605;BME280;73179;50.978;16.998;2024-03-23T02:47:15;99215.59;;;8.68;97.28
76605;BME280;73179;50.978;16.998;2024-03-23T02:49:41;99180.19;;;8.56;96.40
76605;BME280;73179;50.978;16.998;2024-03-23T02:52:07;99235.59;;;8.99;95.92
76605;BME280;73179;50.978;16.998;2024-03-23T02:54:34;99166.16;;;8.73;95.11
76605;BME280;73179;50.978;16.998;2024-03-23T02:56:59;99198.56;;;9.00;94.54
76605;BME280;73179;50.978;16.998;2024-03-23T02:59:26;99185.41;;;8.98;94.39
76605;BME280;73179;50.978;16.998;2024-03-23T03:01:52;99189.09;;;9.02;93.89
76605;BME280;73179;50.978;16.998;2024-03-23T03:04:18;99180.97;;;8.89;95.16
76605;BME280;73179;50.978;16.998;2024-03-23T03:06:47;99213.53;;;9.11;94.99
76605;BME280;73179;50.978;16.998;2024-03-23T03:09:13;99204.31;;;9.12;95.00
76605;BME280;73179;50.978;16.998;2024-03-23T03:11:39;99160.97;;;8.90;94.16
76605;BME280;73179;50.978;16.998;2024-03-23T03:14:05;99198.63;;;9.14;94.44
76605;BME280;73179;50.978;16.998;2024-03-23T03:16:33;99175.09;;;9.00;93.83
76605;BME280;73179;50.978;16.998;2024-03-23T03:18:59;99134.19;;;8.80;93.37
76605;BME280;73179;50.978;16.998;2024-03-23T03:21:26;99190.91;;;9.21;93.27
76605;BME280;73179;50.978;16.998;2024-03-23T03:23:53;99167.38;;;8.94;94.34
76605;BME280;73179;50.978;16.998;2024-03-23T03:26:19;99146.47;;;8.72;96.26
76605;BME280;73179;50.978;16.998;2024-03-23T03:28:45;99181.69;;;8.94;96.38
76605;BME280;73179;50.978;16.998;2024-03-23T03:31:18;99132.47;;;8.70;95.47
76605;BME280;73179;50.978;16.998;2024-03-23T03:33:44;99115.47;;;8.70;95.01
76605;BME280;73179;50.978;16.998;2024-03-23T03:36:10;99133.50;;;8.88;95.73
76605;BME280;73179;50.978;16.998;2024-03-23T03:38:37;99130.09;;;8.82;95.71
76605;BME280;73179;50.978;16.998;2024-03-23T03:41:04;99164.28;;;9.00;96.03
76605;BME280;73179;50.978;16.998;2024-03-23T03:43:30;99135.97;;;8.84;95.09
76605;BME280;73179;50.978;16.998;2024-03-23T03:45:57;99138.31;;;8.91;94.88
76605;BME280;73179;50.978;16.998;2024-03-23T03:48:24;99144.50;;;9.05;94.17
76605;BME280;73179;50.978;16.998;2024-03-23T03:50:49;99145.22;;;9.11;93.95
76605;BME280;73179;50.978;16.998;2024-03-23T03:53:16;99107.94;;;8.99;93.18
76605;BME280;73179;50.978;16.998;2024-03-23T03:55:42;99126.13;;;9.07;93.97
76605;BME280;73179;50.978;16.998;2024-03-23T03:58:08;99148.31;;;9.18;94.83
76605;BME280;73179;50.978;16.998;2024-03-23T04:00:34;99084.41;;;8.86;94.17
76605;BME280;73179;50.978;16.998;2024-03-23T04:03:01;99117.84;;;9.03;93.92
76605;BME280;73179;50.978;16.998;2024-03-23T04:05:28;99137.13;;;9.11;94.31
76605;BME280;73179;50.978;16.998;2024-03-23T04:07:54;99140.50;;;9.16;94.24
76605;BME280;73179;50.978;16.998;2024-03-23T04:10:20;99119.94;;;9.06;93.90
76605;BME280;73179;50.978;16.998;2024-03-23T04:12:47;99077.13;;;8.86;93.95
76605;BME280;73179;50.978;16.998;2024-03-23T04:15:13;99147.13;;;9.37;93.29
76605;BME280;73179;50.978;16.998;2024-03-23T04:17:40;99111.63;;;9.17;93.27
76605;BME280;73179;50.978;16.998;2024-03-23T04:20:08;99138.22;;;9.37;93.09
76605;BME280;73179;50.978;16.998;2024-03-23T04:22:40;99100.50;;;9.04;93.48
76605;BME280;73179;50.978;16.998;2024-03-23T04:25:06;99088.22;;;8.98;93.68
76605;BME280;73179;50.978;16.998;2024-03-23T04:27:33;99142.72;;;9.28;93.02
76605;BME280;73179;50.978;16.998;2024-03-23T04:29:59;99103.53;;;9.03;93.43
76605;BME280;73179;50.978;16.998;2024-03-23T04:32:30;99127.72;;;9.22;93.49
76605;BME280;73179;50.978;16.998;2024-03-23T04:34:56;99142.94;;;9.18;93.77
76605;BME280;73179;50.978;16.998;2024-03-23T04:37:23;99106.22;;;8.89;94.40
76605;BME280;73179;50.978;16.998;2024-03-23T04:39:49;99080.13;;;8.71;94.00
76605;BME280;73179;50.978;16.998;2024-03-23T04:42:15;99112.13;;;8.91;94.22
76605;BME280;73179;50.978;16.998;2024-03-23T04:44:42;99103.09;;;8.82;93.02
76605;BME280;73179;50.978;16.998;2024-03-23T04:47:08;99108.09;;;8.89;93.15
76605;BME280;73179;50.978;16.998;2024-03-23T04:49:34;99093.53;;;8.76;92.81
76605;BME280;73179;50.978;16.998;2024-03-23T04:52:04;99097.81;;;8.91;91.94
76605;BME280;73179;50.978;16.998;2024-03-23T04:54:30;99127.72;;;9.08;93.20
76605;BME280;73179;50.978;16.998;2024-03-23T04:56:58;99087.94;;;8.73;93.68
76605;BME280;73179;50.978;16.998;2024-03-23T04:59:24;99071.31;;;8.66;93.10
76605;BME280;73179;50.978;16.998;2024-03-23T05:01:50;99102.81;;;8.84;93.14
76605;BME280;73179;50.978;16.998;2024-03-23T05:04:16;99079.03;;;8.72;93.05
76605;BME280;73179;50.978;16.998;2024-03-23T05:06:42;99072.34;;;8.83;91.89
76605;BME280;73179;50.978;16.998;2024-03-23T05:09:08;99106.81;;;9.14;91.65
76605;BME280;73179;50.978;16.998;2024-03-23T05:11:38;99048.06;;;8.83;91.46
76605;BME280;73179;50.978;16.998;2024-03-23T05:14:04;99096.91;;;9.09;92.04
76605;BME280;73179;50.978;16.998;2024-03-23T05:16:31;99098.22;;;9.12;91.89
76605;BME280;73179;50.978;16.998;2024-03-23T05:18:56;99100.91;;;9.12;91.93
76605;BME280;73179;50.978;16.998;2024-03-23T05:21:23;99109.44;;;9.19;92.12
76605;BME280;73179;50.978;16.998;2024-03-23T05:23:49;99103.31;;;9.13;92.16
76605;BME280;73179;50.978;16.998;2024-03-23T05:26:15;99086.53;;;9.02;92.17
76605;BME280;73179;50.978;16.998;2024-03-23T05:28:41;99059.94;;;8.82;92.87
76605;BME280;73179;50.978;16.998;2024-03-23T05:31:07;99088.31;;;9.21;91.86
76605;BME280;73179;50.978;16.998;2024-03-23T05:33:37;99059.94;;;9.09;91.45
76605;BME280;73179;50.978;16.998;2024-03-23T05:36:07;99096.50;;;9.29;92.11
76605;BME280;73179;50.978;16.998;2024-03-23T05:38:36;99057.53;;;9.08;91.96
76605;BME280;73179;50.978;16.998;2024-03-23T05:41:03;99087.13;;;9.27;92.33
76605;BME280;73179;50.978;16.998;2024-03-23T05:43:29;99058.94;;;9.05;91.95
76605;BME280;73179;50.978;16.998;2024-03-23T05:45:56;99046.66;;;8.99;91.99
76605;BME280;73179;50.978;16.998;2024-03-23T05:48:23;99084.09;;;9.28;92.21
76605;BME280;73179;50.978;16.998;2024-03-23T05:50:49;99084.31;;;9.32;91.88
76605;BME280;73179;50.978;16.998;2024-03-23T05:53:16;99081.97;;;9.39;91.03
76605;BME280;73179;50.978;16.998;2024-03-23T05:55:43;99047.47;;;9.36;89.50
76605;BME280;73179;50.978;16.998;2024-03-23T05:58:09;99030.28;;;9.45;88.39
76605;BME280;73179;50.978;16.998;2024-03-23T06:00:36;99033.56;;;9.42;89.63
76605;BME280;73179;50.978;16.998;2024-03-23T06:03:02;99060.31;;;9.66;89.62
76605;BME280;73179;50.978;16.998;2024-03-23T06:05:28;99039.75;;;9.56;89.14
76605;BME280;73179;50.978;16.998;2024-03-23T06:07:54;99051.09;;;9.67;89.79
76605;BME280;73179;50.978;16.998;2024-03-23T06:10:20;99005.06;;;9.36;89.41
76605;BME280;73179;50.978;16.998;2024-03-23T06:12:46;99057.50;;;9.71;90.03
76605;BME280;73179;50.978;16.998;2024-03-23T06:15:12;99057.03;;;9.69;90.94
76605;BME280;73179;50.978;16.998;2024-03-23T06:17:39;99057.97;;;9.73;91.50
76605;BME280;73179;50.978;16.998;2024-03-23T06:20:05;99035.50;;;9.64;91.35
76605;BME280;73179;50.978;16.998;2024-03-23T06:22:34;99082.81;;;9.97;89.89
76605;BME280;73179;50.978;16.998;2024-03-23T06:25:00;99065.31;;;9.95;91.72
76605;BME280;73179;50.978;16.998;2024-03-23T06:27:26;99041.84;;;9.82;91.02
76605;BME280;73179;50.978;16.998;2024-03-23T06:29:52;99060.72;;;9.95;91.34
76605;BME280;73179;50.978;16.998;2024-03-23T06:32:18;99037.59;;;9.89;90.18
76605;BME280;73179;50.978;16.998;2024-03-23T06:34:44;99067.66;;;10.10;89.84
76605;BME280;73179;50.978;16.998;2024-03-23T06:37:10;99029.84;;;9.96;89.17
76605;BME280;73179;50.978;16.998;2024-03-23T06:39:37;99024.50;;;10.19;88.49
76605;BME280;73179;50.978;16.998;2024-03-23T06:42:04;99018.81;;;10.07;91.84
76605;BME280;73179;50.978;16.998;2024-03-23T06:44:31;99011.56;;;9.93;92.48
76605;BME280;73179;50.978;16.998;2024-03-23T06:46:57;98999.28;;;9.87;92.88
76605;BME280;73179;50.978;16.998;2024-03-23T06:49:25;98987.38;;;9.88;91.16
76605;BME280;73179;50.978;16.998;2024-03-23T06:51:51;99004.97;;;10.08;89.93
76605;BME280;73179;50.978;16.998;2024-03-23T06:54:18;98990.84;;;10.11;90.19
76605;BME280;73179;50.978;16.998;2024-03-23T06:56:44;98971.38;;;10.00;91.16
76605;BME280;73179;50.978;16.998;2024-03-23T06:59:11;98963.00;;;10.11;91.94
76605;BME280;73179;50.978;16.998;2024-03-23T07:01:37;99000.16;;;10.58;92.23
76605;BME280;73179;50.978;16.998;2024-03-23T07:04:03;98969.75;;;10.52;92.36
76605;BME280;73179;50.978;16.998;2024-03-23T07:06:30;98981.75;;;10.69;90.59
76605;BME280;73179;50.978;16.998;2024-03-23T07:08:57;98947.81;;;10.54;90.01
76605;BME280;73179;50.978;16.998;2024-03-23T07:11:23;98975.97;;;11.18;90.59
76605;BME280;73179;50.978;16.998;2024-03-23T07:13:51;98954.63;;;11.34;89.42
76605;BME280;73179;50.978;16.998;2024-03-23T07:16:17;98922.72;;;11.48;85.73
76605;BME280;73179;50.978;16.998;2024-03-23T07:18:44;98928.47;;;11.72;86.26
76605;BME280;73179;50.978;16.998;2024-03-23T07:21:10;98961.75;;;11.99;82.74
76605;BME280;73179;50.978;16.998;2024-03-23T07:23:36;98920.75;;;12.00;84.07
76605;BME280;73179;50.978;16.998;2024-03-23T07:26:03;98952.09;;;12.35;85.23
76605;BME280;73179;50.978;16.998;2024-03-23T07:28:34;98916.34;;;12.25;82.37
76605;BME280;73179;50.978;16.998;2024-03-23T07:31:08;98900.41;;;12.23;82.06
76605;BME280;73179;50.978;16.998;2024-03-23T07:33:43;98892.53;;;12.39;81.86
76605;BME280;73179;50.978;16.998;2024-03-23T07:36:09;98925.38;;;12.75;79.42
76605;BME280;73179;50.978;16.998;2024-03-23T07:38:35;98919.56;;;12.85;78.10
76605;BME280;73179;50.978;16.998;2024-03-23T07:41:06;98923.00;;;12.95;77.69
76605;BME280;73179;50.978;16.998;2024-03-23T07:43:32;98891.06;;;12.92;76.57
76605;BME280;73179;50.978;16.998;2024-03-23T07:45:59;98913.31;;;13.35;77.44
76605;BME280;73179;50.978;16.998;2024-03-23T07:48:25;98898.44;;;13.53;76.67
76605;BME280;73179;50.978;16.998;2024-03-23T07:51:05;98908.13;;;13.42;75.79
76605;BME280;73179;50.978;16.998;2024-03-23T07:53:32;98854.94;;;13.20;75.91
76605;BME280;73179;50.978;16.998;2024-03-23T07:56:06;98870.63;;;13.35;76.82
76605;BME280;73179;50.978;16.998;2024-03-23T07:58:33;98888.78;;;13.44;77.10
76605;BME280;73179;50.978;16.998;2024-03-23T08:01:07;98854.63;;;13.34;78.25
76605;BME280;73179;50.978;16.998;2024-03-23T08:03:40;98856.50;;;13.21;77.53
76605;BME280;73179;50.978;16.998;2024-03-23T08:06:13;98845.75;;;13.04;76.28
76605;BME280;73179;50.978;16.998;2024-03-23T08:08:41;98838.94;;;12.98;77.88
76605;BME280;73179;50.978;16.998;2024-03-23T08:11:07;98836.75;;;12.92;78.63
76605;BME280;73179;50.978;16.998;2024-03-23T08:13:35;98804.81;;;12.68;79.13
76605;BME280;73179;50.978;16.998;2024-03-23T08:16:02;98832.31;;;12.87;80.96
76605;BME280;73179;50.978;16.998;2024-03-23T08:18:29;98859.97;;;13.10;79.24
76605;BME280;73179;50.978;16.998;2024-03-23T08:21:02;98837.34;;;13.18;79.18
76605;BME280;73179;50.978;16.998;2024-03-23T08:23:30;98800.97;;;13.10;79.38
76605;BME280;73179;50.978;16.998;2024-03-23T08:25:58;98782.44;;;12.92;77.66
76605;BME280;73179;50.978;16.998;2024-03-23T08:28:26;98818.34;;;13.18;81.57
76605;BME280;73179;50.978;16.998;2024-03-23T08:30:54;98808.47;;;13.13;77.53
76605;BME280;73179;50.978;16.998;2024-03-23T08:33:21;98805.63;;;13.10;78.68
76605;BME280;73179;50.978;16.998;2024-03-23T08:36:04;98795.69;;;12.93;77.44
76605;BME280;73179;50.978;16.998;2024-03-23T08:38:31;98756.16;;;12.63;76.08
76605;BME280;73179;50.978;16.998;2024-03-23T08:41:01;98765.94;;;12.76;76.14
76605;BME280;73179;50.978;16.998;2024-03-23T08:43:32;98767.53;;;12.77;75.75
76605;BME280;73179;50.978;16.998;2024-03-23T08:46:15;98752.13;;;12.69;76.92
76605;BME280;73179;50.978;16.998;2024-03-23T08:48:43;98778.91;;;12.91;76.79
76605;BME280;73179;50.978;16.998;2024-03-23T08:51:11;98775.53;;;12.94;74.45
76605;BME280;73179;50.978;16.998;2024-03-23T08:53:38;98740.28;;;12.73;75.35
76605;BME280;73179;50.978;16.998;2024-03-23T08:56:05;98719.97;;;12.59;74.27
76605;BME280;73179;50.978;16.998;2024-03-23T08:58:32;98751.25;;;12.77;74.40
76605;BME280;73179;50.978;16.998;2024-03-23T09:01:07;98747.41;;;12.78;73.46
76605;BME280;73179;50.978;16.998;2024-03-23T09:03:34;98768.06;;;12.91;73.43
76605;BME280;73179;50.978;16.998;2024-03-23T09:06:02;98728.69;;;12.64;75.02
76605;BME280;73179;50.978;16.998;2024-03-23T09:08:28;98730.06;;;12.70;73.21
76605;BME280;73179;50.978;16.998;2024-03-23T09:10:54;98722.50;;;12.55;74.27
76605;BME280;73179;50.978;16.998;2024-03-23T09:13:20;98746.38;;;12.70;74.94
76605;BME280;73179;50.978;16.998;2024-03-23T09:15:50;98734.66;;;12.58;78.56
76605;BME280;73179;50.978;16.998;2024-03-23T09:18:17;98728.47;;;12.49;78.75
76605;BME280;73179;50.978;16.998;2024-03-23T09:20:43;98720.69;;;12.47;79.17
76605;BME280;73179;50.978;16.998;2024-03-23T09:23:10;98572.44;;;11.60;78.57
76605;BME280;73179;50.978;16.998;2024-03-23T09:25:38;98710.47;;;12.65;78.88
76605;BME280;73179;50.978;16.998;2024-03-23T09:28:08;98689.44;;;12.62;78.34
76605;BME280;73179;50.978;16.998;2024-03-23T09:30:35;98656.06;;;12.61;76.63
76605;BME280;73179;50.978;16.998;2024-03-23T09:33:02;98643.03;;;12.67;78.40
76605;BME280;73179;50.978;16.998;2024-03-23T09:35:28;98641.75;;;12.85;76.15
76605;BME280;73179;50.978;16.998;2024-03-23T09:37:54;98624.50;;;13.14;77.81
76605;BME280;73179;50.978;16.998;2024-03-23T09:40:20;98633.81;;;13.49;76.75
76605;BME280;73179;50.978;16.998;2024-03-23T09:42:50;98629.59;;;13.64;75.32
76605;BME280;73179;50.978;16.998;2024-03-23T09:45:22;98606.09;;;14.23;75.92
76605;BME280;73179;50.978;16.998;2024-03-23T09:47:48;98616.31;;;14.54;73.28
76605;BME280;73179;50.978;16.998;2024-03-23T09:50:16;98635.44;;;14.70;72.40
76605;BME280;73179;50.978;16.998;2024-03-23T09:52:42;98594.31;;;14.91;73.55
76605;BME280;73179;50.978;16.998;2024-03-23T09:55:09;98618.66;;;15.31;70.95
76605;BME280;73179;50.978;16.998;2024-03-23T09:57:35;98569.63;;;14.84;71.14
76605;BME280;73179;50.978;16.998;2024-03-23T10:00:03;98607.34;;;15.29;72.89
76605;BME280;73179;50.978;16.998;2024-03-23T10:02:29;98561.34;;;14.96;70.49
76605;BME280;73179;50.978;16.998;2024-03-23T10:04:56;98560.56;;;14.79;71.15
76605;BME280;73179;50.978;16.998;2024-03-23T10:07:25;98586.28;;;15.45;73.73
76605;BME280;73179;50.978;16.998;2024-03-23T10:09:51;98554.97;;;15.54;69.95
76605;BME280;73179;50.978;16.998;2024-03-23T10:12:19;98520.97;;;15.67;71.79
76605;BME280;73179;50.978;16.998;2024-03-23T10:14:45;98541.94;;;16.40;68.65
76605;BME280;73179;50.978;16.998;2024-03-23T10:17:22;98555.53;;;16.79;64.11
76605;BME280;73179;50.978;16.998;2024-03-23T10:19:52;98552.91;;;16.86;63.05
76605;BME280;73179;50.978;16.998;2024-03-23T10:22:24;98535.66;;;16.82;62.86
76605;BME280;73179;50.978;16.998;2024-03-23T10:24:50;98539.06;;;16.98;62.59
76605;BME280;73179;50.978;16.998;2024-03-23T10:27:20;98519.13;;;16.97;61.74
76605;BME280;73179;50.978;16.998;2024-03-23T10:29:49;98523.03;;;17.23;62.96
76605;BME280;73179;50.978;16.998;2024-03-23T10:32:17;98493.91;;;16.85;62.15
76605;BME280;73179;50.978;16.998;2024-03-23T10:34:43;98470.69;;;16.72;61.53
76605;BME280;73179;50.978;16.998;2024-03-23T10:37:11;98476.25;;;16.56;60.74
76605;BME280;73179;50.978;16.998;2024-03-23T10:39:40;98493.25;;;16.68;62.00
76605;BME280;73179;50.978;16.998;2024-03-23T10:42:10;98512.53;;;16.76;62.59
76605;BME280;73179;50.978;16.998;2024-03-23T10:44:36;98484.69;;;16.93;62.71
76605;BME280;73179;50.978;16.998;2024-03-23T10:47:05;98489.50;;;17.26;62.79
76605;BME280;73179;50.978;16.998;2024-03-23T10:49:36;98479.06;;;17.08;60.30
76605;BME280;73179;50.978;16.998;2024-03-23T10:52:06;98442.78;;;16.59;60.49
76605;BME280;73179;50.978;16.998;2024-03-23T10:54:34;98502.28;;;16.95;61.27
76605;BME280;73179;50.978;16.998;2024-03-23T10:57:06;98502.97;;;16.89;61.15
76605;BME280;73179;50.978;16.998;2024-03-23T10:59:39;98492.78;;;16.86;61.96
76605;BME280;73179;50.978;16.998;2024-03-23T11:02:06;98463.34;;;16.76;61.75
76605;BME280;73179;50.978;16.998;2024-03-23T11:04:39;98457.25;;;16.86;60.97
76605;BME280;73179;50.978;16.998;2024-03-23T11:09:55;98452.41;;;16.76;59.43
76605;BME280;73179;50.978;16.998;2024-03-23T11:15:03;98485.63;;;16.78;60.06
76605;BME280;73179;50.978;16.998;2024-03-23T11:17:31;98459.38;;;16.50;60.29
76605;BME280;73179;50.978;16.998;2024-03-23T11:20:03;98493.22;;;16.65;60.46
76605;BME280;73179;50.978;16.998;2024-03-23T11:22:46;98485.00;;;16.65;60.06
76605;BME280;73179;50.978;16.998;2024-03-23T11:25:17;98437.69;;;16.38;58.94
76605;BME280;73179;50.978;16.998;2024-03-23T11:27:45;98455.22;;;16.56;60.13
76605;BME280;73179;50.978;16.998;2024-03-23T11:30:23;98479.41;;;16.81;60.12
76605;BME280;73179;50.978;16.998;2024-03-23T11:32:51;98391.91;;;16.28;60.28
76605;BME280;73179;50.978;16.998;2024-03-23T11:35:29;98425.34;;;16.44;57.26
76605;BME280;73179;50.978;16.998;2024-03-23T11:38:14;98444.44;;;16.44;57.58
76605;BME280;73179;50.978;16.998;2024-03-23T11:40:44;98417.22;;;16.25;58.61
76605;BME280;73179;50.978;16.998;2024-03-23T11:43:15;98454.94;;;16.42;57.73
76605;BME280;73179;50.978;16.998;2024-03-23T11:48:15;98440.81;;;16.14;57.97
76605;BME280;73179;50.978;16.998;2024-03-23T11:50:49;98453.66;;;16.13;60.17
76605;BME280;73179;50.978;16.998;2024-03-23T11:53:17;98466.88;;;16.11;60.03
76605;BME280;73179;50.978;16.998;2024-03-23T11:55:53;98485.78;;;16.01;59.09
76605;BME280;73179;50.978;16.998;2024-03-23T11:58:21;98487.72;;;15.81;58.12
76605;BME280;73179;50.978;16.998;2024-03-23T12:00:56;98493.41;;;15.72;59.35
76605;BME280;73179;50.978;16.998;2024-03-23T12:03:27;98475.34;;;15.49;58.64
76605;BME280;73179;50.978;16.998;2024-03-23T12:05:57;98491.38;;;15.50;59.57
76605;BME280;73179;50.978;16.998;2024-03-23T12:08:28;98494.38;;;14.79;64.85
76605;BME280;73179;50.978;16.998;2024-03-23T12:11:13;98531.50;;;14.24;69.21
76605;BME280;73179;50.978;16.998;2024-03-23T12:13:42;98495.84;;;13.86;70.03
76605;BME280;73179;50.978;16.998;2024-03-23T12:18:44;98514.59;;;13.63;75.09
76605;BME280;73179;50.978;16.998;2024-03-23T12:21:10;98506.09;;;13.65;75.25
76605;BME280;73179;50.978;16.998;2024-03-23T12:23:41;98486.63;;;13.63;75.55
76605;BME280;73179;50.978;16.998;2024-03-23T12:26:08;98498.03;;;13.68;74.68
76605;BME280;73179;50.978;16.998;2024-03-23T12:28:34;98483.41;;;13.73;73.46
76605;BME280;73179;50.978;16.998;2024-03-23T12:31:01;98467.00;;;13.69;71.99
76605;BME280;73179;50.978;16.998;2024-03-23T12:33:27;98414.72;;;13.48;70.32
76605;BME280;73179;50.978;16.998;2024-03-23T12:35:53;98426.31;;;13.45;70.08
76605;BME280;73179;50.978;16.998;2024-03-23T12:38:20;98457.63;;;13.67;70.13
76605;BME280;73179;50.978;16.998;2024-03-23T12:40:50;98468.84;;;13.65;70.04
76605;BME280;73179;50.978;16.998;2024-03-23T12:43:16;98483.84;;;13.75;69.76
76605;BME280;73179;50.978;16.998;2024-03-23T12:45:49;98476.38;;;13.72;70.32
76605;BME280;73179;50.978;16.998;2024-03-23T12:48:16;98462.03;;;13.59;69.64
76605;BME280;73179;50.978;16.998;2024-03-23T12:50:42;98438.66;;;13.43;70.48
76605;BME280;73179;50.978;16.998;2024-03-23T12:53:08;98463.34;;;13.50;69.92
76605;BME280;73179;50.978;16.998;2024-03-23T12:55:35;98478.31;;;13.44;70.43
76605;BME280;73179;50.978;16.998;2024-03-23T12:58:01;98498.44;;;13.55;70.63
76605;BME280;73179;50.978;16.998;2024-03-23T13:00:27;98465.41;;;13.28;70.88
76605;BME280;73179;50.978;16.998;2024-03-23T13:02:53;98491.78;;;13.40;70.44
76605;BME280;73179;50.978;16.998;2024-03-23T13:05:19;98542.94;;;13.62;71.64
76605;BME280;73179;50.978;16.998;2024-03-23T13:07:46;98527.34;;;13.47;72.23
76605;BME280;73179;50.978;16.998;2024-03-23T13:10:11;98533.69;;;13.39;72.09
76605;BME280;73179;50.978;16.998;2024-03-23T13:12:38;98592.38;;;13.28;70.06
76605;BME280;73179;50.978;16.998;2024-03-23T13:15:04;98586.44;;;12.45;72.80
76605;BME280;73179;50.978;16.998;2024-03-23T13:17:30;98538.75;;;11.69;73.38
76605;BME280;73179;50.978;16.998;2024-03-23T13:19:57;98566.91;;;11.56;75.08
76605;BME280;73179;50.978;16.998;2024-03-23T13:22:24;98584.66;;;11.45;76.38
76605;BME280;73179;50.978;16.998;2024-03-23T13:24:50;98620.81;;;11.49;76.99
76605;BME280;73179;50.978;16.998;2024-03-23T13:27:16;98628.81;;;11.45;77.73
76605;BME280;73179;50.978;16.998;2024-03-23T13:29:42;98645.66;;;11.51;77.37
76605;BME280;73179;50.978;16.998;2024-03-23T13:32:09;98622.66;;;11.36;77.68
76605;BME280;73179;50.978;16.998;2024-03-23T13:34:35;98635.97;;;11.50;76.69
76605;BME280;73179;50.978;16.998;2024-03-23T13:37:01;98628.34;;;11.43;77.04
76605;BME280;73179;50.978;16.998;2024-03-23T13:39:28;98632.47;;;11.50;75.32
76605;BME280;73179;50.978;16.998;2024-03-23T13:41:56;98647.41;;;11.56;75.79
76605;BME280;73179;50.978;16.998;2024-03-23T13:44:22;98639.59;;;11.25;75.72
76605;BME280;73179;50.978;16.998;2024-03-23T13:46:49;98640.75;;;10.77;75.64
76605;BME280;73179;50.978;16.998;2024-03-23T13:49:30;98702.50;;;10.75;74.48
76605;BME280;73179;50.978;16.998;2024-03-23T13:51:58;98716.84;;;10.59;74.30
76605;BME280;73179;50.978;16.998;2024-03-23T13:54:25;98734.19;;;10.32;74.48
76605;BME280;73179;50.978;16.998;2024-03-23T13:56:52;98708.34;;;9.91;73.71
76605;BME280;73179;50.978;16.998;2024-03-23T13:59:19;98697.56;;;9.43;75.24